Time,TemperatureF,DewpointF,PressureIn,WindDirection,WindDirectionDegrees,WindSpeedMPH,WindSpeedGustMPH,Humidity,HourlyPrecipIn,Conditions,Clouds,dailyrainin,SolarRadiationWatts/m^2,SoftwareType,DateUTC
2013-08-31 00:02:00,58.0,58.0,-100.00,NNE,33,2.0,3.0,99,0.00,,,0.02,0.000000,,2013-08-31 05:02:00,
2013-08-31 00:43:00,58.0,58.0,-100.00,NNE,33,2.0,3.0,99,0.00,,,0.02,0.000000,,2013-08-31 05:43:00,
2013-08-31 00:53:00,58.0,58.0,-100.00,NNE,33,2.0,3.0,99,0.00,,,0.02,0.000000,,2013-08-31 05:53:00,
2013-08-31 01:02:00,58.0,58.0,-100.00,ENE,58,2.0,4.0,99,0.00,,,0.01,0.000000,,2013-08-31 06:02:00,
2013-08-31 01:42:00,58.0,58.0,-100.00,ENE,58,2.0,4.0,99,0.00,,,0.01,0.000000,,2013-08-31 06:42:00,
2013-08-31 01:52:00,58.0,58.0,-100.00,ENE,58,2.0,4.0,99,0.00,,,0.01,0.000000,,2013-08-31 06:52:00,
2013-08-31 02:02:00,56.0,56.0,-100.00,NNW,346,2.0,2.0,99,0.00,,,0.01,0.000000,,2013-08-31 07:02:00,
2013-08-31 02:42:00,56.0,56.0,-100.00,NNW,346,2.0,2.0,99,0.00,,,0.01,0.000000,,2013-08-31 07:42:00,
2013-08-31 02:52:00,56.0,56.0,-100.00,NNW,346,2.0,2.0,99,0.00,,,0.01,0.000000,,2013-08-31 07:52:00,
2013-08-31 03:02:00,56.0,56.0,-100.00,ENE,64,1.0,3.0,100,0.00,,,0.00,0.000000,,2013-08-31 08:02:00,
2013-08-31 03:22:00,56.0,56.0,-100.00,ENE,64,1.0,3.0,100,0.00,,,0.00,0.000000,,2013-08-31 08:22:00,
2013-08-31 03:32:00,56.0,56.0,-100.00,ENE,64,1.0,3.0,100,0.00,,,0.00,0.000000,,2013-08-31 08:32:00,
2013-08-31 03:42:00,56.0,56.0,-100.00,ENE,64,1.0,3.0,100,0.00,,,0.00,0.000000,,2013-08-31 08:42:00,
2013-08-31 03:52:00,56.0,56.0,-100.00,ENE,64,1.0,3.0,100,0.00,,,0.00,0.000000,,2013-08-31 08:52:00,
2013-08-31 05:02:00,56.0,56.0,-100.00,West,263,0.0,2.0,100,-99.99,,,0.00,0.000000,,2013-08-31 10:02:00,
2013-08-31 05:23:00,56.0,56.0,-100.00,West,263,0.0,2.0,100,-99.99,,,0.00,0.000000,,2013-08-31 10:23:00,
2013-08-31 05:33:00,56.0,56.0,-100.00,West,263,0.0,2.0,100,-99.99,,,0.00,0.000000,,2013-08-31 10:33:00,
2013-08-31 05:43:00,56.0,56.0,-100.00,West,263,0.0,2.0,100,-99.99,,,0.00,0.000000,,2013-08-31 10:43:00,
2013-08-31 05:53:00,56.0,56.0,-100.00,West,263,0.0,2.0,100,-99.99,,,0.00,0.000000,,2013-08-31 10:53:00,
2013-08-31 06:02:00,56.0,56.0,-100.00,SSE,164,0.0,3.0,100,0.00,,,0.00,0.000000,,2013-08-31 11:02:00,
2013-08-31 06:42:00,56.0,56.0,-100.00,SSE,164,0.0,3.0,100,0.00,,,0.00,0.000000,,2013-08-31 11:42:00,
2013-08-31 06:52:00,56.0,56.0,-100.00,SSE,164,0.0,3.0,100,0.00,,,0.00,0.000000,,2013-08-31 11:52:00,
2013-08-31 07:42:00,54.0,54.0,-100.00,South,191,0.0,2.0,100,0.00,,,0.00,13.000000,,2013-08-31 12:42:00,
2013-08-31 07:52:00,54.0,54.0,-100.00,South,191,0.0,2.0,100,0.00,,,0.00,13.000000,,2013-08-31 12:52:00,
2013-08-31 08:01:00,54.0,54.0,-100.00,South,191,0.0,2.0,100,0.00,,,0.00,13.000000,,2013-08-31 13:01:00,
2013-08-31 08:02:00,58.0,58.0,-100.00,WSW,240,1.0,2.0,99,0.00,,,0.00,120.000000,,2013-08-31 13:02:00,
2013-08-31 08:42:00,58.0,58.0,-100.00,WSW,240,1.0,2.0,99,0.00,,,0.00,120.000000,,2013-08-31 13:42:00,
2013-08-31 08:52:00,58.0,58.0,-100.00,WSW,240,1.0,2.0,99,0.00,,,0.00,120.000000,,2013-08-31 13:52:00,
2013-08-31 09:42:00,61.0,60.0,-100.00,North,10,1.0,3.0,98,0.00,,,0.00,215.000000,,2013-08-31 14:42:00,
2013-08-31 09:52:00,61.0,60.0,-100.00,North,10,1.0,3.0,98,0.00,,,0.00,215.000000,,2013-08-31 14:52:00,
2013-08-31 10:01:00,61.0,60.0,-100.00,North,10,1.0,3.0,98,0.00,,,0.00,215.000000,,2013-08-31 15:01:00,
2013-08-31 10:02:00,69.0,63.0,-100.00,SW,227,3.0,6.0,80,0.00,,,0.00,537.000000,,2013-08-31 15:02:00,
2013-08-31 10:45:00,69.0,63.0,-100.00,SW,227,3.0,6.0,80,0.00,,,0.00,537.000000,,2013-08-31 15:45:00,
2013-08-31 10:55:00,69.0,63.0,-100.00,SW,227,3.0,6.0,80,0.00,,,0.00,537.000000,,2013-08-31 15:55:00,
2013-08-31 11:02:00,73.0,63.0,-100.00,SW,223,5.0,8.0,70,0.00,,,0.00,697.000000,,2013-08-31 16:02:00,
2013-08-31 11:25:00,73.0,63.0,-100.00,SW,223,5.0,8.0,70,0.00,,,0.00,697.000000,,2013-08-31 16:25:00,
2013-08-31 11:34:00,73.0,63.0,-100.00,SW,223,5.0,8.0,70,0.00,,,0.00,697.000000,,2013-08-31 16:34:00,
2013-08-31 11:44:00,73.0,63.0,-100.00,SW,223,5.0,8.0,70,0.00,,,0.00,697.000000,,2013-08-31 16:44:00,
2013-08-31 11:52:00,73.0,63.0,-100.00,SW,223,5.0,8.0,70,0.00,,,0.00,697.000000,,2013-08-31 16:52:00,
2013-08-31 12:02:00,75.0,62.0,-100.00,West,260,5.0,9.0,65,0.00,,,-99.99,759.000000,,2013-08-31 17:02:00,
2013-08-31 12:23:00,75.0,62.0,-100.00,West,260,5.0,9.0,65,0.00,,,-99.99,759.000000,,2013-08-31 17:23:00,
2013-08-31 12:34:00,75.0,62.0,-100.00,West,260,5.0,9.0,65,0.00,,,-99.99,759.000000,,2013-08-31 17:34:00,
2013-08-31 12:43:00,75.0,62.0,-100.00,West,260,5.0,9.0,65,0.00,,,-99.99,759.000000,,2013-08-31 17:43:00,
2013-08-31 12:53:00,75.0,62.0,-100.00,West,260,5.0,9.0,65,0.00,,,-99.99,759.000000,,2013-08-31 17:53:00,
2013-08-31 13:42:00,79.0,62.0,-100.00,SW,233,4.0,8.0,56,0.00,,,0.00,828.000000,,2013-08-31 18:42:00,
2013-08-31 13:52:00,79.0,62.0,-100.00,SW,233,4.0,8.0,56,0.00,,,0.00,828.000000,,2013-08-31 18:52:00,
2013-08-31 14:01:00,79.0,62.0,-100.00,SW,233,4.0,8.0,56,0.00,,,0.00,828.000000,,2013-08-31 19:01:00,
2013-08-31 14:02:00,82.0,62.0,-100.00,ESE,116,3.0,8.0,51,0.00,,,0.00,827.000000,,2013-08-31 19:02:00,
2013-08-31 14:22:00,82.0,62.0,-100.00,ESE,116,3.0,8.0,51,0.00,,,0.00,827.000000,,2013-08-31 19:22:00,
2013-08-31 14:32:00,82.0,62.0,-100.00,ESE,116,3.0,8.0,51,0.00,,,0.00,827.000000,,2013-08-31 19:32:00,
2013-08-31 14:42:00,82.0,62.0,-100.00,ESE,116,3.0,8.0,51,0.00,,,0.00,827.000000,,2013-08-31 19:42:00,
2013-08-31 14:52:00,82.0,62.0,-100.00,ESE,116,3.0,8.0,51,0.00,,,0.00,827.000000,,2013-08-31 19:52:00,
2013-08-31 15:02:00,82.0,60.0,-100.00,WSW,244,5.0,9.0,48,0.00,,,0.00,661.000000,,2013-08-31 20:02:00,
2013-08-31 15:43:00,82.0,60.0,-100.00,WSW,244,5.0,9.0,48,0.00,,,0.00,661.000000,,2013-08-31 20:43:00,
2013-08-31 15:53:00,82.0,60.0,-100.00,WSW,244,5.0,9.0,48,0.00,,,0.00,661.000000,,2013-08-31 20:53:00,
2013-08-31 16:02:00,82.0,62.0,-100.00,SSW,210,3.0,9.0,51,0.00,,,0.00,620.000000,,2013-08-31 21:02:00,
2013-08-31 16:44:00,82.0,62.0,-100.00,SSW,210,3.0,9.0,51,0.00,,,0.00,620.000000,,2013-08-31 21:44:00,
2013-08-31 16:54:00,82.0,62.0,-100.00,SSW,210,3.0,9.0,51,0.00,,,0.00,620.000000,,2013-08-31 21:54:00,
2013-08-31 17:02:00,82.0,63.0,-100.00,SW,232,3.0,9.0,52,0.00,,,0.00,452.000000,,2013-08-31 22:02:00,
2013-08-31 17:43:00,82.0,63.0,-100.00,SW,232,3.0,9.0,52,0.00,,,0.00,452.000000,,2013-08-31 22:43:00,
2013-08-31 17:53:00,82.0,63.0,-100.00,SW,232,3.0,9.0,52,0.00,,,0.00,452.000000,,2013-08-31 22:53:00,
2013-08-31 18:42:00,80.0,62.0,-100.00,SW,222,3.0,8.0,54,0.00,,,0.00,279.000000,,2013-08-31 23:42:00,
2013-08-31 18:52:00,80.0,62.0,-100.00,SW,222,3.0,8.0,54,0.00,,,0.00,279.000000,,2013-08-31 23:52:00,
2013-08-31 19:01:00,80.0,62.0,-100.00,SW,222,3.0,8.0,54,0.00,,,0.00,279.000000,,2013-09-01 00:01:00,
2013-08-31 19:02:00,75.0,63.0,-100.00,SSW,213,0.0,6.0,67,0.00,,,0.00,111.000000,,2013-09-01 00:02:00,
2013-08-31 19:22:00,75.0,63.0,-100.00,SSW,213,0.0,6.0,67,0.00,,,0.00,111.000000,,2013-09-01 00:22:00,
2013-08-31 19:32:00,75.0,63.0,-100.00,SSW,213,0.0,6.0,67,0.00,,,0.00,111.000000,,2013-09-01 00:32:00,
2013-08-31 19:42:00,75.0,63.0,-100.00,SSW,213,0.0,6.0,67,0.00,,,0.00,111.000000,,2013-09-01 00:42:00,
2013-08-31 19:52:00,75.0,63.0,-100.00,SSW,213,0.0,6.0,67,0.00,,,0.00,111.000000,,2013-09-01 00:52:00,
2013-08-31 20:02:00,68.0,62.0,-100.00,SW,228,3.0,6.0,82,0.00,,,0.00,6.000000,,2013-09-01 01:02:00,
2013-08-31 20:22:00,68.0,62.0,-100.00,SW,228,3.0,6.0,82,0.00,,,0.00,6.000000,,2013-09-01 01:22:00,
2013-08-31 20:32:00,68.0,62.0,-100.00,SW,228,3.0,6.0,82,0.00,,,0.00,6.000000,,2013-09-01 01:32:00,
2013-08-31 20:42:00,68.0,62.0,-100.00,SW,228,3.0,6.0,82,0.00,,,0.00,6.000000,,2013-09-01 01:42:00,
2013-08-31 20:52:00,68.0,62.0,-100.00,SW,228,3.0,6.0,82,0.00,,,0.00,6.000000,,2013-09-01 01:52:00,
2013-08-31 21:02:00,66.0,63.0,-100.00,SW,225,3.0,5.0,91,0.00,,,-99.99,0.000000,,2013-09-01 02:02:00,
2013-08-31 21:23:00,66.0,63.0,-100.00,SW,225,3.0,5.0,91,0.00,,,-99.99,0.000000,,2013-09-01 02:23:00,
2013-08-31 21:32:00,66.0,63.0,-100.00,SW,225,3.0,5.0,91,0.00,,,-99.99,0.000000,,2013-09-01 02:32:00,
2013-08-31 21:43:00,66.0,63.0,-100.00,SW,225,3.0,5.0,91,0.00,,,-99.99,0.000000,,2013-09-01 02:43:00,
2013-08-31 21:53:00,66.0,63.0,-100.00,SW,225,3.0,5.0,91,0.00,,,-99.99,0.000000,,2013-09-01 02:53:00,
2013-08-31 22:02:00,-999.0,-99.9,-100.00,SW,229,3.0,5.0,-999,-99.99,,,-99.99,0.000000,,2013-09-01 03:02:00,
2013-08-31 22:23:00,65.0,63.0,-100.00,SW,229,3.0,5.0,92,0.00,,,0.00,0.000000,,2013-09-01 03:23:00,
2013-08-31 22:35:00,65.0,63.0,-100.00,SW,229,3.0,5.0,92,0.00,,,0.00,0.000000,,2013-09-01 03:35:00,
2013-08-31 22:44:00,65.0,63.0,-100.00,SW,229,3.0,5.0,92,0.00,,,0.00,0.000000,,2013-09-01 03:44:00,
2013-08-31 22:54:00,65.0,63.0,-100.00,SW,229,3.0,5.0,92,0.00,,,0.00,0.000000,,2013-09-01 03:54:00,
2013-08-31 23:02:00,64.0,63.0,-100.00,SW,222,3.0,6.0,95,0.00,,,0.00,0.000000,,2013-09-01 04:02:00,
2013-08-31 23:25:00,64.0,63.0,-100.00,SW,222,3.0,6.0,95,0.00,,,0.00,0.000000,,2013-09-01 04:25:00,
2013-08-31 23:34:00,64.0,63.0,-100.00,SW,222,3.0,6.0,95,0.00,,,0.00,0.000000,,2013-09-01 04:34:00,
2013-08-31 23:43:00,64.0,63.0,-100.00,SW,222,3.0,6.0,95,0.00,,,0.00,0.000000,,2013-09-01 04:43:00,
2013-08-31 23:54:00,64.0,63.0,-100.00,SW,222,3.0,6.0,95,0.00,,,0.00,0.000000,,2013-09-01 04:54:00,